Time;durP1;ratioP1;P1;durP2;ratioP2;P2;SDS_P1;SDS_P2;PMS_P1;PMS_P2;Temp;Humidity;BMP_temperature;BMP_pressure;BME280_temperature;BME280_humidity;BME280_pressure;Samples;Min_cycle;Max_cycle;Signal;HPM_P1;HPM_P2
2023/05/17 00:00:20;;;;;;;;;;;9.90;99.90;;;;;;5048278;28;20385;-58
2023/05/17 00:02:46;;;;;;;;;;;9.90;99.90;;;;;;5049229;28;19917;-62
2023/05/17 00:05:11;;;;;;;;;;;9.90;99.90;;;;;;5048296;28;19921;-58
2023/05/17 00:07:37;;;;;;;;;;;9.80;99.90;;;;;;5036506;28;19917;-58
2023/05/17 00:10:03;;;;;;;;;;;9.80;99.90;;;;;;5036716;28;20408;-58
2023/05/17 00:12:28;;;;;;;;;;;9.80;99.90;;;;;;5053246;28;19983;-58
2023/05/17 00:14:54;;;;;;;;;;;9.80;99.90;;;;;;5052791;28;19923;-58
2023/05/17 00:17:19;;;;;;;;;;;9.70;99.90;;;;;;5052495;28;19963;-58
2023/05/17 00:19:45;;;;;;;;;;;9.70;99.90;;;;;;5052009;28;20381;-56
2023/05/17 00:22:10;;;;;;;;;;;9.70;99.90;;;;;;5053084;28;19917;-58
2023/05/17 00:24:36;;;;;;;;;;;9.70;99.90;;;;;;5052752;28;19917;-60
2023/05/17 00:27:01;;;;;;;;;;;9.70;99.90;;;;;;5052541;28;20388;-57
2023/05/17 00:29:27;;;;;;;;;;;9.70;99.90;;;;;;5052050;28;19924;-58
2023/05/17 00:31:52;;;;;;;;;;;9.70;99.90;;;;;;5047089;28;19921;-56
2023/05/17 00:34:18;;;;;;;;;;;9.60;99.90;;;;;;5032454;28;20350;-58
2023/05/17 00:36:43;;;;;;;;;;;9.60;99.90;;;;;;5043661;28;19978;-58
2023/05/17 00:39:09;;;;;;;;;;;9.60;99.90;;;;;;5032562;28;20424;-58
2023/05/17 00:41:36;;;;;;;;;;;9.60;99.90;;;;;;5044882;28;19928;-58
2023/05/17 00:44:01;;;;;;;;;;;9.60;99.90;;;;;;5051326;28;19970;-57
2023/05/17 00:46:27;;;;;;;;;;;9.60;99.90;;;;;;5051904;28;20331;-58
2023/05/17 00:48:52;;;;;;;;;;;9.60;99.90;;;;;;5051327;28;19943;-57
2023/05/17 00:51:18;;;;;;;;;;;9.70;99.90;;;;;;5050814;28;20011;-57
2023/05/17 00:53:44;;;;;;;;;;;9.60;99.90;;;;;;5052453;28;19916;-56
2023/05/17 00:56:10;;;;;;;;;;;9.60;99.90;;;;;;5050530;28;19920;-57
2023/05/17 00:58:36;;;;;;;;;;;9.60;99.90;;;;;;5051287;28;19916;-57
2023/05/17 01:01:02;;;;;;;;;;;9.60;99.90;;;;;;5052080;28;19916;-58
2023/05/17 01:03:27;;;;;;;;;;;9.50;99.90;;;;;;5049983;28;19942;-58
2023/05/17 01:05:53;;;;;;;;;;;9.50;99.90;;;;;;5051805;28;19925;-57
2023/05/17 01:08:19;;;;;;;;;;;9.50;99.90;;;;;;5050864;28;19917;-56
2023/05/17 01:11:03;;;;;;;;;;;9.40;99.90;;;;;;5052188;28;19928;-58
2023/05/17 01:13:47;;;;;;;;;;;9.40;99.90;;;;;;5045760;28;20013;-57
2023/05/17 01:16:26;;;;;;;;;;;9.30;99.90;;;;;;5051291;28;20028;-56
2023/05/17 01:18:57;;;;;;;;;;;9.30;99.90;;;;;;5051372;28;19924;-57
2023/05/17 01:21:34;;;;;;;;;;;9.20;99.90;;;;;;5049145;28;19968;-57
2023/05/17 01:24:19;;;;;;;;;;;9.20;99.90;;;;;;5047873;28;19923;-58
2023/05/17 01:26:46;;;;;;;;;;;9.10;99.90;;;;;;5051349;28;19921;-57
2023/05/17 01:29:12;;;;;;;;;;;9.10;99.90;;;;;;5051262;28;19917;-58
2023/05/17 01:31:38;;;;;;;;;;;9.00;99.90;;;;;;5050998;28;20008;-58
2023/05/17 01:34:07;;;;;;;;;;;9.00;99.90;;;;;;5047479;28;19917;-58
2023/05/17 01:36:33;;;;;;;;;;;8.90;99.90;;;;;;5050987;28;19970;-58
2023/05/17 01:39:00;;;;;;;;;;;8.90;99.90;;;;;;5050520;28;19920;-56
2023/05/17 01:41:42;;;;;;;;;;;8.80;99.90;;;;;;5051633;28;20027;-57
2023/05/17 01:44:16;;;;;;;;;;;8.70;99.90;;;;;;5034530;28;19917;-58
2023/05/17 01:46:42;;;;;;;;;;;8.60;99.90;;;;;;5047520;28;19959;-57
2023/05/17 01:49:11;;;;;;;;;;;8.60;99.90;;;;;;5049523;28;19987;-58
2023/05/17 01:51:43;;;;;;;;;;;8.50;99.90;;;;;;5049912;28;20024;-56
2023/05/17 01:54:10;;;;;;;;;;;8.40;99.90;;;;;;5050795;28;19917;-57
2023/05/17 01:56:40;;;;;;;;;;;8.50;99.90;;;;;;5051274;28;19920;-58
2023/05/17 01:59:06;;;;;;;;;;;8.40;99.90;;;;;;5050664;28;20313;-58
2023/05/17 02:01:32;;;;;;;;;;;8.40;99.90;;;;;;5054601;28;19917;-57
2023/05/17 02:03:58;;;;;;;;;;;8.40;99.90;;;;;;5056732;28;20237;-57
2023/05/17 02:06:23;;;;;;;;;;;8.40;99.90;;;;;;5051745;28;19921;-57
2023/05/17 02:08:49;;;;;;;;;;;8.30;99.90;;;;;;5040472;28;19939;-58
2023/05/17 02:11:15;;;;;;;;;;;8.40;99.90;;;;;;5031189;28;19924;-58
2023/05/17 02:13:40;;;;;;;;;;;8.40;99.90;;;;;;5041242;28;19917;-58
2023/05/17 02:16:06;;;;;;;;;;;8.40;99.90;;;;;;5030668;28;19979;-58
2023/05/17 02:18:34;;;;;;;;;;;8.40;99.90;;;;;;5040506;28;19920;-58
2023/05/17 02:20:59;;;;;;;;;;;8.40;99.90;;;;;;5029876;28;19917;-58
2023/05/17 02:23:25;;;;;;;;;;;8.50;99.90;;;;;;5044975;28;19917;-58
2023/05/17 02:25:51;;;;;;;;;;;8.50;99.90;;;;;;5051009;28;19971;-58
2023/05/17 02:28:16;;;;;;;;;;;8.60;99.90;;;;;;5046638;28;20393;-58
2023/05/17 02:30:42;;;;;;;;;;;8.60;99.90;;;;;;5050563;28;19936;-58
2023/05/17 02:33:07;;;;;;;;;;;8.60;99.90;;;;;;5049936;28;19920;-58
2023/05/17 02:35:33;;;;;;;;;;;8.60;99.90;;;;;;5030032;28;19921;-58
2023/05/17 02:37:59;;;;;;;;;;;8.70;99.90;;;;;;5038211;28;19917;-57
2023/05/17 02:40:24;;;;;;;;;;;8.60;99.90;;;;;;5033347;28;20392;-58
2023/05/17 02:42:50;;;;;;;;;;;8.60;99.90;;;;;;5037776;28;19923;-58
2023/05/17 02:45:16;;;;;;;;;;;8.60;99.90;;;;;;5033010;28;19923;-57
2023/05/17 02:47:41;;;;;;;;;;;8.60;99.90;;;;;;5033976;28;20316;-58
2023/05/17 02:50:07;;;;;;;;;;;8.60;99.90;;;;;;5034011;28;20435;-56
2023/05/17 02:52:32;;;;;;;;;;;8.60;99.90;;;;;;5048821;28;19927;-58
2023/05/17 02:54:58;;;;;;;;;;;8.60;99.90;;;;;;5049711;28;19916;-58
2023/05/17 02:57:23;;;;;;;;;;;8.60;99.90;;;;;;5049097;28;19916;-58
2023/05/17 02:59:49;;;;;;;;;;;8.50;99.90;;;;;;5038684;28;20070;-59
2023/05/17 03:02:14;;;;;;;;;;;8.50;99.90;;;;;;5034052;28;19916;-58
2023/05/17 03:04:40;;;;;;;;;;;8.50;99.90;;;;;;5042104;28;19917;-58
2023/05/17 03:07:05;;;;;;;;;;;8.50;99.90;;;;;;5030024;28;19918;-58
2023/05/17 03:09:31;;;;;;;;;;;8.40;99.90;;;;;;5042341;28;19917;-58
2023/05/17 03:11:56;;;;;;;;;;;8.40;99.90;;;;;;5034621;28;19921;-58
2023/05/17 03:14:22;;;;;;;;;;;8.40;99.90;;;;;;5046367;28;19921;-57
2023/05/17 03:16:47;;;;;;;;;;;8.30;99.90;;;;;;5032756;28;19929;-57
2023/05/17 03:19:13;;;;;;;;;;;8.20;99.90;;;;;;5048876;28;20003;-56
2023/05/17 03:21:39;;;;;;;;;;;8.20;99.90;;;;;;5050342;28;19917;-56
2023/05/17 03:24:04;;;;;;;;;;;8.10;99.90;;;;;;5049294;28;19917;-57
2023/05/17 03:26:32;;;;;;;;;;;8.10;99.90;;;;;;5029106;28;20394;-57
2023/05/17 03:28:57;;;;;;;;;;;8.10;99.90;;;;;;5039616;28;19931;-55
2023/05/17 03:31:23;;;;;;;;;;;8.00;99.90;;;;;;5032774;28;20003;-57
2023/05/17 03:33:48;;;;;;;;;;;7.90;99.90;;;;;;5041569;28;19985;-57
2023/05/17 03:36:14;;;;;;;;;;;7.90;99.90;;;;;;5048888;28;19961;-57
2023/05/17 03:38:39;;;;;;;;;;;7.90;99.90;;;;;;5031497;28;20361;-57
2023/05/17 03:41:05;;;;;;;;;;;7.90;99.90;;;;;;5039842;28;19917;-57
2023/05/17 03:43:31;;;;;;;;;;;7.80;99.90;;;;;;5037807;28;20187;-57
2023/05/17 03:45:56;;;;;;;;;;;7.80;99.90;;;;;;5052925;28;19916;-57
2023/05/17 03:48:22;;;;;;;;;;;7.80;99.90;;;;;;5052442;28;20475;-57
2023/05/17 03:50:47;;;;;;;;;;;7.80;99.90;;;;;;5053248;28;19999;-57
2023/05/17 03:53:13;;;;;;;;;;;7.70;99.90;;;;;;5052639;28;19917;-57
2023/05/17 03:55:38;;;;;;;;;;;7.70;99.90;;;;;;5053238;28;19920;-57
2023/05/17 03:58:04;;;;;;;;;;;7.70;99.90;;;;;;5052603;28;20284;-57
2023/05/17 04:00:29;;;;;;;;;;;7.70;99.90;;;;;;5052730;28;19916;-57
2023/05/17 04:02:55;;;;;;;;;;;7.70;99.90;;;;;;5052792;28;19927;-57
2023/05/17 04:05:20;;;;;;;;;;;7.70;99.90;;;;;;5052832;28;19916;-57
2023/05/17 04:07:46;;;;;;;;;;;7.70;99.90;;;;;;5052135;28;20035;-57
2023/05/17 04:10:11;;;;;;;;;;;7.70;99.90;;;;;;5053020;28;20171;-58
2023/05/17 04:12:37;;;;;;;;;;;7.70;99.90;;;;;;5053149;28;20328;-57
2023/05/17 04:15:03;;;;;;;;;;;7.70;99.90;;;;;;5032887;28;19927;-58
2023/05/17 04:17:28;;;;;;;;;;;7.70;99.90;;;;;;5038842;28;20377;-58
2023/05/17 04:19:54;;;;;;;;;;;7.80;99.90;;;;;;5051956;28;20352;-58
2023/05/17 04:22:20;;;;;;;;;;;7.80;99.90;;;;;;5033217;28;19982;-57
2023/05/17 04:24:45;;;;;;;;;;;7.80;99.90;;;;;;5041043;28;19927;-56
2023/05/17 04:27:11;;;;;;;;;;;7.80;99.90;;;;;;5052473;28;19923;-56
2023/05/17 04:29:37;;;;;;;;;;;7.90;99.90;;;;;;5050656;28;19923;-57
2023/05/17 04:32:03;;;;;;;;;;;7.90;99.90;;;;;;5051377;28;19924;-57
2023/05/17 04:34:30;;;;;;;;;;;7.90;99.90;;;;;;5051066;28;19917;-57
2023/05/17 04:36:56;;;;;;;;;;;8.00;99.90;;;;;;5052023;28;19924;-57
2023/05/17 04:39:22;;;;;;;;;;;8.00;99.90;;;;;;5052115;28;20351;-57
2023/05/17 04:41:47;;;;;;;;;;;8.10;99.90;;;;;;5052888;28;19916;-57
2023/05/17 04:44:13;;;;;;;;;;;8.10;99.90;;;;;;5054991;28;19923;-57
2023/05/17 04:46:38;;;;;;;;;;;8.20;99.90;;;;;;5047794;28;19921;-57
2023/05/17 04:49:04;;;;;;;;;;;8.20;99.90;;;;;;5039104;28;19917;-57
2023/05/17 04:51:30;;;;;;;;;;;8.20;99.90;;;;;;5036596;28;19917;-60
2023/05/17 04:53:55;;;;;;;;;;;8.30;99.90;;;;;;5032380;28;19923;-57
2023/05/17 04:56:21;;;;;;;;;;;8.40;99.90;;;;;;5048402;28;19928;-57
2023/05/17 04:58:47;;;;;;;;;;;8.50;99.90;;;;;;5051612;28;19963;-57
2023/05/17 05:01:12;;;;;;;;;;;8.50;99.90;;;;;;5043058;28;19967;-57
2023/05/17 05:03:38;;;;;;;;;;;8.60;99.90;;;;;;5035947;28;19986;-57
2023/05/17 05:06:03;;;;;;;;;;;8.70;99.90;;;;;;5050333;28;20397;-57
2023/05/17 05:08:29;;;;;;;;;;;8.80;99.90;;;;;;5051278;28;19959;-57
2023/05/17 05:10:55;;;;;;;;;;;8.90;99.90;;;;;;5051831;28;19921;-57
2023/05/17 05:13:23;;;;;;;;;;;9.00;99.90;;;;;;5050073;28;19921;-57
2023/05/17 05:15:49;;;;;;;;;;;9.00;99.90;;;;;;5051178;28;19935;-57
2023/05/17 05:18:15;;;;;;;;;;;9.10;99.90;;;;;;5051300;28;20405;-58
2023/05/17 05:20:42;;;;;;;;;;;9.30;99.90;;;;;;5049870;28;20003;-58
2023/05/17 05:23:07;;;;;;;;;;;9.30;99.90;;;;;;5036991;28;19917;-57
2023/05/17 05:25:33;;;;;;;;;;;9.40;99.90;;;;;;5038145;28;19928;-57
2023/05/17 05:27:58;;;;;;;;;;;9.50;99.90;;;;;;5050278;28;19917;-58
2023/05/17 05:30:24;;;;;;;;;;;9.60;99.90;;;;;;5051663;28;19917;-57
2023/05/17 05:32:50;;;;;;;;;;;9.70;99.90;;;;;;5051823;28;19960;-58
2023/05/17 05:35:16;;;;;;;;;;;9.90;99.90;;;;;;5050867;28;20000;-58
2023/05/17 05:37:41;;;;;;;;;;;10.00;99.90;;;;;;5046936;28;19932;-58
2023/05/17 05:40:07;;;;;;;;;;;10.10;99.90;;;;;;5041030;28;19940;-58
2023/05/17 05:42:33;;;;;;;;;;;10.20;99.90;;;;;;5051120;28;19925;-58
2023/05/17 05:44:58;;;;;;;;;;;10.30;99.90;;;;;;5048028;28;19927;-58
2023/05/17 05:47:24;;;;;;;;;;;10.30;99.90;;;;;;5050829;28;19931;-61
2023/05/17 05:49:49;;;;;;;;;;;10.40;99.90;;;;;;5051110;28;19921;-58
2023/05/17 05:52:15;;;;;;;;;;;10.50;99.90;;;;;;5051357;28;19916;-58
2023/05/17 05:54:41;;;;;;;;;;;10.50;99.90;;;;;;5051225;28;20299;-58
2023/05/17 05:57:06;;;;;;;;;;;10.50;99.90;;;;;;5049944;28;20356;-58
2023/05/17 05:59:32;;;;;;;;;;;10.50;99.90;;;;;;5030960;28;20327;-58
2023/05/17 06:01:57;;;;;;;;;;;10.50;99.90;;;;;;5044844;28;19920;-58
2023/05/17 06:04:23;;;;;;;;;;;10.50;99.90;;;;;;5048801;28;19917;-58
2023/05/17 06:06:49;;;;;;;;;;;10.50;99.90;;;;;;5050512;28;19928;-57
2023/05/17 06:09:15;;;;;;;;;;;10.50;99.90;;;;;;5050810;28;20380;-58
2023/05/17 06:11:40;;;;;;;;;;;10.40;99.90;;;;;;5050327;28;20011;-59
2023/05/17 06:14:07;;;;;;;;;;;10.50;99.90;;;;;;5048252;28;20019;-57
2023/05/17 06:16:32;;;;;;;;;;;10.60;99.90;;;;;;5042161;28;20397;-58
2023/05/17 06:18:58;;;;;;;;;;;10.60;99.90;;;;;;5050076;28;20030;-58
2023/05/17 06:21:24;;;;;;;;;;;10.70;99.90;;;;;;5050509;28;20007;-57
2023/05/17 06:23:49;;;;;;;;;;;10.80;99.90;;;;;;5047087;28;19942;-57
2023/05/17 06:26:15;;;;;;;;;;;10.90;99.90;;;;;;5048128;28;20320;-57
2023/05/17 06:28:41;;;;;;;;;;;11.10;99.90;;;;;;5048772;28;19927;-56
2023/05/17 06:31:06;;;;;;;;;;;11.10;99.90;;;;;;5050810;28;19924;-58
2023/05/17 06:33:32;;;;;;;;;;;11.20;99.90;;;;;;5049974;28;20035;-58
2023/05/17 06:35:57;;;;;;;;;;;11.30;99.90;;;;;;5050173;28;19924;-57
2023/05/17 06:38:23;;;;;;;;;;;11.50;99.90;;;;;;5048608;28;19920;-57
2023/05/17 06:40:54;;;;;;;;;;;11.50;99.90;;;;;;5050628;28;19942;-56
2023/05/17 06:43:20;;;;;;;;;;;11.60;99.80;;;;;;5049510;28;19920;-57
2023/05/17 06:45:46;;;;;;;;;;;11.70;99.90;;;;;;5050304;28;19970;-58
2023/05/17 06:48:12;;;;;;;;;;;11.80;99.90;;;;;;5048964;28;19967;-58
2023/05/17 06:50:37;;;;;;;;;;;12.00;99.90;;;;;;5049924;28;20335;-58
2023/05/17 06:53:03;;;;;;;;;;;12.10;99.70;;;;;;5050003;28;19962;-58
2023/05/17 06:55:29;;;;;;;;;;;12.10;99.30;;;;;;5049454;28;20004;-58
2023/05/17 06:57:54;;;;;;;;;;;12.10;98.90;;;;;;5049252;28;20301;-62
2023/05/17 07:00:20;;;;;;;;;;;12.00;98.90;;;;;;5050328;28;19920;-58
2023/05/17 07:02:46;;;;;;;;;;;11.90;98.40;;;;;;5050424;28;19920;-58
2023/05/17 07:05:12;;;;;;;;;;;11.90;99.00;;;;;;5049450;28;20232;-58
2023/05/17 07:07:37;;;;;;;;;;;11.90;98.30;;;;;;5047093;28;19969;-58
2023/05/17 07:10:06;;;;;;;;;;;11.90;97.60;;;;;;5041990;28;19917;-58
2023/05/17 07:12:32;;;;;;;;;;;11.90;98.00;;;;;;5035050;28;19921;-58
2023/05/17 07:14:57;;;;;;;;;;;11.90;98.30;;;;;;5048226;28;20255;-57
2023/05/17 07:17:23;;;;;;;;;;;12.00;98.40;;;;;;5042553;28;19923;-58
2023/05/17 07:19:49;;;;;;;;;;;12.00;98.30;;;;;;5028345;28;19917;-58
2023/05/17 07:22:16;;;;;;;;;;;12.10;98.40;;;;;;5044985;28;20274;-58
2023/05/17 07:24:42;;;;;;;;;;;12.10;98.60;;;;;;5038012;28;19931;-58
2023/05/17 07:27:08;;;;;;;;;;;12.00;98.60;;;;;;5047110;28;19924;-63
2023/05/17 07:29:33;;;;;;;;;;;12.10;98.40;;;;;;5044735;28;19966;-58
2023/05/17 07:31:59;;;;;;;;;;;12.00;98.30;;;;;;5043003;28;19951;-58
2023/05/17 07:34:24;;;;;;;;;;;12.00;98.20;;;;;;5041956;28;20007;-58
2023/05/17 07:36:50;;;;;;;;;;;11.90;97.70;;;;;;5038124;28;20002;-57
2023/05/17 07:39:15;;;;;;;;;;;11.90;97.60;;;;;;5039765;28;20479;-55
2023/05/17 07:41:41;;;;;;;;;;;11.80;97.40;;;;;;5045345;28;20207;-58
2023/05/17 07:44:06;;;;;;;;;;;11.80;97.70;;;;;;5047566;28;19928;-58
2023/05/17 07:46:32;;;;;;;;;;;12.00;98.20;;;;;;5047022;28;19940;-58
2023/05/17 07:48:57;;;;;;;;;;;12.10;97.70;;;;;;5046525;28;19927;-60
2023/05/17 07:51:23;;;;;;;;;;;12.30;97.50;;;;;;5033845;28;20011;-59
2023/05/17 07:53:49;;;;;;;;;;;12.40;97.30;;;;;;5051663;28;20149;-59
2023/05/17 07:56:14;;;;;;;;;;;12.60;97.10;;;;;;5053498;28;20401;-59
2023/05/17 07:58:40;;;;;;;;;;;12.70;96.70;;;;;;5049836;28;19950;-60
2023/05/17 08:01:05;;;;;;;;;;;12.90;97.00;;;;;;5049012;28;19978;-59
2023/05/17 08:03:31;;;;;;;;;;;13.00;96.60;;;;;;5050147;28;19923;-59
2023/05/17 08:05:56;;;;;;;;;;;13.20;96.90;;;;;;5052819;28;20010;-60
2023/05/17 08:08:22;;;;;;;;;;;13.40;96.10;;;;;;5053469;28;19920;-60
2023/05/17 08:10:48;;;;;;;;;;;13.50;95.60;;;;;;5049753;28;20349;-56
2023/05/17 08:13:14;;;;;;;;;;;13.60;96.20;;;;;;5048337;28;20471;-59
2023/05/17 08:15:39;;;;;;;;;;;13.60;95.40;;;;;;5047618;28;19968;-58
2023/05/17 08:18:05;;;;;;;;;;;13.60;95.10;;;;;;5056395;28;19999;-58
2023/05/17 08:20:30;;;;;;;;;;;13.60;95.50;;;;;;5052388;28;19985;-58
2023/05/17 08:22:56;;;;;;;;;;;13.60;95.10;;;;;;5047106;28;19943;-58
2023/05/17 08:25:21;;;;;;;;;;;13.60;95.40;;;;;;5043710;28;19970;-57
2023/05/17 08:27:47;;;;;;;;;;;13.60;95.30;;;;;;5044126;28;20422;-58
2023/05/17 08:30:13;;;;;;;;;;;13.50;95.90;;;;;;5047760;28;19999;-58
2023/05/17 08:32:38;;;;;;;;;;;13.50;95.40;;;;;;5048606;28;19999;-57
2023/05/17 08:35:04;;;;;;;;;;;13.30;95.50;;;;;;5050034;28;19928;-58
2023/05/17 08:37:29;;;;;;;;;;;13.30;95.70;;;;;;5046883;28;19968;-58
2023/05/17 08:39:55;;;;;;;;;;;13.20;96.00;;;;;;5050105;28;19916;-58
2023/05/17 08:42:21;;;;;;;;;;;13.20;96.10;;;;;;5050651;28;19916;-58
2023/05/17 08:44:46;;;;;;;;;;;13.10;96.00;;;;;;5046944;28;20027;-58
2023/05/17 08:47:25;;;;;;;;;;;13.10;95.50;;;;;;5051801;28;19916;-57
2023/05/17 08:49:54;;;;;;;;;;;13.00;95.50;;;;;;5050745;28;19925;-58
2023/05/17 08:52:20;;;;;;;;;;;13.10;95.50;;;;;;5052506;28;19921;-57
2023/05/17 08:54:46;;;;;;;;;;;13.20;95.50;;;;;;5045754;28;19971;-57
2023/05/17 08:57:13;;;;;;;;;;;13.20;95.50;;;;;;5045438;28;19924;-58
2023/05/17 08:59:38;;;;;;;;;;;13.20;95.10;;;;;;5047526;28;19927;-58
2023/05/17 09:02:04;;;;;;;;;;;13.20;95.70;;;;;;5051962;28;20109;-58
2023/05/17 09:04:30;;;;;;;;;;;13.20;95.50;;;;;;5051808;28;19970;-58
2023/05/17 09:06:55;;;;;;;;;;;13.10;94.90;;;;;;5053103;28;20232;-58
2023/05/17 09:09:21;;;;;;;;;;;13.10;94.50;;;;;;5049927;28;19924;-58
2023/05/17 09:11:47;;;;;;;;;;;13.00;94.30;;;;;;5046065;28;19927;-60
2023/05/17 09:14:14;;;;;;;;;;;13.00;94.80;;;;;;5049825;28;19924;-58
2023/05/17 09:16:39;;;;;;;;;;;13.10;95.70;;;;;;5051767;28;19920;-57
2023/05/17 09:19:06;;;;;;;;;;;13.40;95.30;;;;;;5056008;28;19923;-58
2023/05/17 09:21:32;;;;;;;;;;;13.70;95.10;;;;;;5057545;28;19917;-59
2023/05/17 09:24:00;;;;;;;;;;;14.10;95.70;;;;;;5055506;28;19916;-58
2023/05/17 09:26:36;;;;;;;;;;;14.40;95.30;;;;;;5048727;28;20440;-58
2023/05/17 09:29:06;;;;;;;;;;;14.50;95.00;;;;;;5037154;28;19916;-59
2023/05/17 09:31:32;;;;;;;;;;;14.50;94.30;;;;;;5053279;28;19916;-58
2023/05/17 09:33:58;;;;;;;;;;;14.50;94.40;;;;;;5048933;28;19917;-58
2023/05/17 09:36:23;;;;;;;;;;;14.40;93.80;;;;;;5047475;28;20054;-58
2023/05/17 09:38:57;;;;;;;;;;;14.40;93.40;;;;;;5053884;28;20389;-57
2023/05/17 09:41:25;;;;;;;;;;;14.30;93.20;;;;;;5051158;28;19974;-58
2023/05/17 09:43:51;;;;;;;;;;;14.30;93.40;;;;;;5053620;28;19939;-59
2023/05/17 09:46:18;;;;;;;;;;;14.20;93.50;;;;;;5053148;28;20357;-58
2023/05/17 09:48:45;;;;;;;;;;;14.10;93.60;;;;;;5056028;28;19924;-58
2023/05/17 09:51:10;;;;;;;;;;;14.00;93.30;;;;;;5047543;28;19920;-58
2023/05/17 09:53:39;;;;;;;;;;;14.00;93.40;;;;;;5050043;28;19932;-58
2023/05/17 09:56:05;;;;;;;;;;;13.90;93.50;;;;;;5049812;28;19921;-58
2023/05/17 09:58:32;;;;;;;;;;;13.90;93.70;;;;;;5052663;28;19921;-58
2023/05/17 10:00:58;;;;;;;;;;;13.80;93.30;;;;;;5051772;28;20358;-58
2023/05/17 10:03:25;;;;;;;;;;;13.80;93.10;;;;;;5045938;28;19917;-58
2023/05/17 10:05:52;;;;;;;;;;;13.80;92.70;;;;;;5049001;28;19932;-58
2023/05/17 10:08:22;;;;;;;;;;;14.00;92.70;;;;;;5046083;28;19921;-59
2023/05/17 10:10:49;;;;;;;;;;;14.10;92.30;;;;;;5044966;28;19931;-58
2023/05/17 10:13:17;;;;;;;;;;;14.20;92.90;;;;;;5046857;28;19951;-58
2023/05/17 10:15:43;;;;;;;;;;;14.40;92.30;;;;;;5053086;28;19924;-57
2023/05/17 10:18:09;;;;;;;;;;;14.40;92.20;;;;;;5051873;28;19929;-57
2023/05/17 10:20:36;;;;;;;;;;;14.60;92.20;;;;;;5049700;28;19920;-55
2023/05/17 10:23:05;;;;;;;;;;;14.70;91.90;;;;;;5054174;28;19927;-58
2023/05/17 10:25:30;;;;;;;;;;;14.80;91.70;;;;;;5051218;28;19927;-57
2023/05/17 10:27:57;;;;;;;;;;;15.00;92.20;;;;;;5055127;28;19920;-57
2023/05/17 10:30:24;;;;;;;;;;;14.90;91.30;;;;;;5052674;28;20432;-57
2023/05/17 10:32:50;;;;;;;;;;;14.90;91.40;;;;;;5053244;28;19916;-56
2023/05/17 10:35:16;;;;;;;;;;;14.90;91.70;;;;;;5053243;28;19920;-57
2023/05/17 10:37:42;;;;;;;;;;;14.90;92.10;;;;;;5045640;28;20228;-57
2023/05/17 10:40:12;;;;;;;;;;;14.90;92.50;;;;;;5052690;28;19928;-59
2023/05/17 10:42:42;;;;;;;;;;;15.00;92.20;;;;;;5048146;28;19927;-57
2023/05/17 10:45:08;;;;;;;;;;;15.10;92.70;;;;;;5044231;28;20207;-58
2023/05/17 10:47:34;;;;;;;;;;;15.30;92.80;;;;;;5055157;28;19947;-58
2023/05/17 10:50:00;;;;;;;;;;;15.30;91.70;;;;;;5053565;28;20554;-60
2023/05/17 10:52:26;;;;;;;;;;;15.20;91.50;;;;;;5054017;28;19917;-58
2023/05/17 10:54:51;;;;;;;;;;;15.20;92.00;;;;;;5053886;28;20487;-57
2023/05/17 10:57:18;;;;;;;;;;;15.10;91.80;;;;;;5056099;28;20308;-58
2023/05/17 10:59:57;;;;;;;;;;;15.10;91.30;;;;;;5057132;28;20160;-59
2023/05/17 11:02:23;;;;;;;;;;;15.20;91.40;;;;;;5048571;28;19920;-59
2023/05/17 11:04:54;;;;;;;;;;;15.40;90.70;;;;;;5057741;28;19939;-58
2023/05/17 11:07:26;;;;;;;;;;;15.40;90.90;;;;;;5055268;28;19973;-59
2023/05/17 11:09:54;;;;;;;;;;;15.40;91.30;;;;;;5054369;28;20455;-58
2023/05/17 11:12:31;;;;;;;;;;;15.40;90.80;;;;;;5049590;28;19920;-58
2023/05/17 11:14:57;;;;;;;;;;;15.40;91.30;;;;;;5048943;28;19925;-58
2023/05/17 11:17:27;;;;;;;;;;;15.30;90.90;;;;;;5052239;28;19925;-58
2023/05/17 11:19:53;;;;;;;;;;;15.30;91.20;;;;;;5050659;28;20162;-58
2023/05/17 11:22:21;;;;;;;;;;;15.50;91.10;;;;;;5054487;28;20416;-57
2023/05/17 11:24:49;;;;;;;;;;;15.60;90.30;;;;;;5052349;28;20365;-56
2023/05/17 11:27:17;;;;;;;;;;;15.80;90.20;;;;;;5048661;28;19927;-58
2023/05/17 11:29:46;;;;;;;;;;;15.90;90.00;;;;;;5054944;28;19916;-58
2023/05/17 11:32:12;;;;;;;;;;;16.10;90.40;;;;;;5051035;28;19920;-57
2023/05/17 11:34:37;;;;;;;;;;;16.20;89.20;;;;;;5055885;28;19928;-57
2023/05/17 11:37:04;;;;;;;;;;;16.10;88.30;;;;;;5052044;28;20176;-59
2023/05/17 11:39:30;;;;;;;;;;;16.10;87.20;;;;;;5051515;28;19971;-58
2023/05/17 11:41:56;;;;;;;;;;;16.00;87.90;;;;;;5050464;28;19916;-58
2023/05/17 11:44:28;;;;;;;;;;;16.00;87.20;;;;;;5046815;28;19931;-56
2023/05/17 11:47:04;;;;;;;;;;;16.00;88.10;;;;;;5049181;28;19916;-57
2023/05/17 11:49:32;;;;;;;;;;;15.90;86.80;;;;;;5049549;28;19923;-57
2023/05/17 11:51:58;;;;;;;;;;;15.80;85.60;;;;;;5046065;28;20415;-58
2023/05/17 11:54:24;;;;;;;;;;;15.70;85.80;;;;;;5046296;28;20161;-58
2023/05/17 11:56:52;;;;;;;;;;;15.60;87.00;;;;;;5046001;28;19971;-58
2023/05/17 11:59:22;;;;;;;;;;;15.60;85.30;;;;;;5043459;28;19963;-58
2023/05/17 12:01:48;;;;;;;;;;;15.60;86.60;;;;;;5051522;28;20445;-58
2023/05/17 12:04:22;;;;;;;;;;;15.70;88.60;;;;;;5053406;28;19981;-58
2023/05/17 12:06:47;;;;;;;;;;;15.90;86.60;;;;;;5048810;28;19920;-58
2023/05/17 12:09:16;;;;;;;;;;;16.20;86.70;;;;;;5050712;28;20385;-55
2023/05/17 12:11:42;;;;;;;;;;;16.30;88.10;;;;;;5047998;28;20309;-58
2023/05/17 12:14:08;;;;;;;;;;;16.40;87.00;;;;;;5051284;28;19916;-57
2023/05/17 12:16:35;;;;;;;;;;;16.30;83.20;;;;;;5047620;28;20124;-58
2023/05/17 12:19:00;;;;;;;;;;;16.30;85.80;;;;;;5047723;28;19931;-57
2023/05/17 12:21:26;;;;;;;;;;;16.50;85.90;;;;;;5051327;28;19916;-57
2023/05/17 12:23:52;;;;;;;;;;;16.60;86.30;;;;;;5050070;28;19921;-57
2023/05/17 12:26:21;;;;;;;;;;;16.70;86.10;;;;;;5047902;28;20322;-58
2023/05/17 12:28:56;;;;;;;;;;;16.80;85.00;;;;;;5045555;28;19927;-58
2023/05/17 12:31:27;;;;;;;;;;;16.90;85.70;;;;;;5049247;28;19920;-60
2023/05/17 12:33:53;;;;;;;;;;;17.00;84.30;;;;;;5049109;28;20239;-58
2023/05/17 12:36:19;;;;;;;;;;;17.10;84.20;;;;;;5048683;28;19968;-56
2023/05/17 12:38:46;;;;;;;;;;;17.20;83.70;;;;;;5048433;28;20311;-58
2023/05/17 12:41:12;;;;;;;;;;;17.30;83.40;;;;;;5047628;28;19995;-57
2023/05/17 12:43:38;;;;;;;;;;;17.40;82.80;;;;;;5049153;28;19920;-57
2023/05/17 12:46:05;;;;;;;;;;;17.30;82.90;;;;;;5055233;28;20304;-57
2023/05/17 12:48:32;;;;;;;;;;;17.40;80.60;;;;;;5047594;28;19924;-58
2023/05/17 12:51:04;;;;;;;;;;;17.30;80.20;;;;;;5047829;28;20017;-57
2023/05/17 12:53:36;;;;;;;;;;;17.40;80.90;;;;;;5048660;28;20577;-57
2023/05/17 12:56:02;;;;;;;;;;;17.30;78.70;;;;;;5052610;28;19971;-58
2023/05/17 12:58:27;;;;;;;;;;;17.20;77.10;;;;;;5046829;28;19962;-58
2023/05/17 13:01:03;;;;;;;;;;;17.20;77.90;;;;;;5050200;28;20132;-57
2023/05/17 13:03:30;;;;;;;;;;;17.10;79.20;;;;;;5044976;28;19948;-58
2023/05/17 13:06:06;;;;;;;;;;;17.10;80.30;;;;;;5047981;28;19975;-60
2023/05/17 13:08:32;;;;;;;;;;;17.20;78.20;;;;;;5046529;28;19921;-58
2023/05/17 13:11:08;;;;;;;;;;;17.20;78.00;;;;;;5050503;28;20533;-56
2023/05/17 13:13:33;;;;;;;;;;;17.20;78.80;;;;;;5047062;28;19921;-58
2023/05/17 13:15:59;;;;;;;;;;;17.20;78.10;;;;;;5049364;28;19928;-58
2023/05/17 13:18:24;;;;;;;;;;;17.20;78.40;;;;;;5051298;28;20380;-56
2023/05/17 13:20:50;;;;;;;;;;;17.20;77.90;;;;;;5050591;28;20197;-58
2023/05/17 13:23:16;;;;;;;;;;;17.30;79.30;;;;;;5046919;28;19917;-58
2023/05/17 13:25:41;;;;;;;;;;;17.30;76.60;;;;;;5051868;28;20301;-59
2023/05/17 13:28:07;;;;;;;;;;;17.30;76.90;;;;;;5048632;28;20370;-60
2023/05/17 13:30:32;;;;;;;;;;;17.20;77.60;;;;;;5050093;28;19920;-58
2023/05/17 13:32:58;;;;;;;;;;;17.10;77.40;;;;;;5051978;28;20387;-58
2023/05/17 13:35:23;;;;;;;;;;;17.10;77.50;;;;;;5046447;28;19990;-59
2023/05/17 13:37:49;;;;;;;;;;;17.00;77.10;;;;;;5047185;28;20286;-59
2023/05/17 13:40:14;;;;;;;;;;;16.90;76.90;;;;;;5049350;28;19920;-60
2023/05/17 13:42:40;;;;;;;;;;;16.70;78.70;;;;;;5047492;28;19931;-58
2023/05/17 13:45:07;;;;;;;;;;;16.70;78.50;;;;;;5049820;28;19939;-60
2023/05/17 13:47:34;;;;;;;;;;;16.80;77.80;;;;;;5048107;28;19924;-58
2023/05/17 13:49:59;;;;;;;;;;;16.80;78.60;;;;;;5048459;28;19916;-59
2023/05/17 13:52:25;;;;;;;;;;;16.90;78.10;;;;;;5048240;28;19916;-61
2023/05/17 13:54:51;;;;;;;;;;;17.00;77.60;;;;;;5047207;28;20151;-59
2023/05/17 13:57:16;;;;;;;;;;;17.20;77.90;;;;;;5050418;28;19920;-58
2023/05/17 13:59:42;;;;;;;;;;;17.30;78.60;;;;;;5047464;28;19917;-58
2023/05/17 14:02:08;;;;;;;;;;;17.30;77.30;;;;;;5048009;28;19963;-59
2023/05/17 14:04:33;;;;;;;;;;;17.30;77.70;;;;;;5046264;28;19920;-58
2023/05/17 14:07:00;;;;;;;;;;;17.40;76.90;;;;;;5048584;28;20303;-59
2023/05/17 14:09:26;;;;;;;;;;;17.40;77.80;;;;;;5043118;28;19929;-59
2023/05/17 14:11:51;;;;;;;;;;;17.50;77.30;;;;;;5047169;28;19916;-59
2023/05/17 14:14:17;;;;;;;;;;;17.40;77.10;;;;;;5048085;28;20393;-59
2023/05/17 14:16:42;;;;;;;;;;;17.20;74.80;;;;;;5047404;28;19929;-61